Terminal Aerodrome Forecast
Issued by NWS Nashville, TN

Home | Current Version | Previous Version | Text Only | Print | Product List | Glossary On
Versions: 1 2 3 4 5 6 7 8 9 10 11 12 13
000
FTUS44 KOHX 041736
TAFBNA
TAF
KBNA 041736Z 0418/0518 27006KT P6SM SCT050
     FM050000 01004KT P6SM BKN250
     FM050900 04003KT 5SM BR BKN100 BKN200
     FM051300 01005KT P6SM VCTS BKN040CB BKN080 PROB30 0514/0518 4SM
      -TSRA BR OVC035CB=

USA.gov is the U.S. government's official web portal to all federal, state and local government web resources and services.